Startpagina
METAR-TAF:

METAR-TAF

Vliegvelden :

OR Tambo International Airport

Johannesburg, Zuid-Afrika

breedte: 26-08S, lengte: 028-14E, hoogte: 1694 m

Actueel weer

Dit bericht is 43 minuten geleden gemaakt, om 21:00 UTC
Wind 7 kt uit het zuiden
Temperatuur 9°C
Vochtigheid 21%
Druk 1024 hPa
Zicht 10 km of meer
geen wolken onder 1500 m en geen cumulonimbus

METAR: FAOR 242100Z 19007KT CAVOK 09/M12 Q1024 NOSIG

Tijdstip: 23:43 (21:43 UTC)

Verwachting

Dit bericht is 5 uur en het 43 minuten geleden gemaakt, om 16:00 UTC
Verwachting geldig van 24 om 18 UTC tot 25 om 24 UTC
Wind 3 kt uit variabele richting
Zicht 10 km of meer
geen wolken onder 1500 m en geen cumulonimbus
Wijzigt naar
van 25 om 00 UTC tot 25 om 02 UTC
Wind 8 kt uit het zuiden
Van 25 om 1600 UTC
Wind 3 kt uit variabele richting
Zicht 10 km of meer
geen wolken onder 1500 m en geen cumulonimbus

TAF: FAOR 241600Z 2418/2524 VRB03KT CAVOK TX19/2513Z TN06/2505Z BECMG 2500/2502 18008KT FM251600 VRB03KT CAVOK

Waarnemingen en weersverwachtingen van meer dan 4000 vliegvelden (METAR en TAF).

De beschikbare stations zijn de gele en rode punten op de kaart.

Ga met uw muis naar het station om de naam te zien.

Klik dan om waarnemingen en weersverwachtingen te zien.

kaart wijzigen: klik op de groene knoppen met een zwart kruis om in te zoomen, op de groene knop met een streepje om uit te zoomen of op de groene pijlen voor aangrenzende kaarten.


METAR-TAF: